sensor_id;sensor_type;location;lat;lon;timestamp;pressure;altitude;pressure_sealevel;temperature
18713;BMP280;9485;49.386;8.674;2023-03-23T00:01:51;99736.50;;;17.66
18713;BMP280;9485;49.386;8.674;2023-03-23T00:07:13;99736.28;;;17.64
18713;BMP280;9485;49.386;8.674;2023-03-23T00:12:40;99727.94;;;17.66
18713;BMP280;9485;49.386;8.674;2023-03-23T00:18:01;99718.03;;;17.67
18713;BMP280;9485;49.386;8.674;2023-03-23T00:23:26;99705.09;;;17.66
18713;BMP280;9485;49.386;8.674;2023-03-23T00:28:47;99708.50;;;17.64
18713;BMP280;9485;49.386;8.674;2023-03-23T00:34:10;99697.66;;;17.63
18713;BMP280;9485;49.386;8.674;2023-03-23T00:39:33;99687.19;;;17.65
18713;BMP280;9485;49.386;8.674;2023-03-23T00:44:56;99687.41;;;17.67
18713;BMP280;9485;49.386;8.674;2023-03-23T00:50:19;99687.41;;;17.67
18713;BMP280;9485;49.386;8.674;2023-03-23T00:55:42;99694.81;;;17.70
18713;BMP280;9485;49.386;8.674;2023-03-23T01:01:03;99692.53;;;17.69
18713;BMP280;9485;49.386;8.674;2023-03-23T01:06:24;99697.16;;;17.72
18713;BMP280;9485;49.386;8.674;2023-03-23T01:11:49;99695.63;;;17.71
18713;BMP280;9485;49.386;8.674;2023-03-23T01:17:10;99689.47;;;17.67
18713;BMP280;9485;49.386;8.674;2023-03-23T01:22:32;99677.88;;;17.65
18713;BMP280;9485;49.386;8.674;2023-03-23T01:27:54;99674.59;;;17.61
18713;BMP280;9485;49.386;8.674;2023-03-23T01:33:15;99668.50;;;17.57
18713;BMP280;9485;49.386;8.674;2023-03-23T01:38:36;99666.00;;;17.53
18713;BMP280;9485;49.386;8.674;2023-03-23T01:44:02;99651.75;;;17.53
18713;BMP280;9485;49.386;8.674;2023-03-23T01:49:31;99653.06;;;17.52
18713;BMP280;9485;49.386;8.674;2023-03-23T01:54:56;99655.16;;;17.52
18713;BMP280;9485;49.386;8.674;2023-03-23T02:00:20;99640.31;;;17.53
18713;BMP280;9485;49.386;8.674;2023-03-23T02:05:46;99624.72;;;17.54
18713;BMP280;9485;49.386;8.674;2023-03-23T02:11:14;99609.06;;;17.48
18713;BMP280;9485;49.386;8.674;2023-03-23T02:16:43;99605.28;;;17.53
18713;BMP280;9485;49.386;8.674;2023-03-23T02:22:41;99593.34;;;17.54
18713;BMP280;9485;49.386;8.674;2023-03-23T02:28:31;99596.38;;;17.56
18713;BMP280;9485;49.386;8.674;2023-03-23T02:34:01;99591.66;;;17.59
18713;BMP280;9485;49.386;8.674;2023-03-23T02:39:26;99601.34;;;17.63
18713;BMP280;9485;49.386;8.674;2023-03-23T02:44:52;99601.41;;;17.71
18713;BMP280;9485;49.386;8.674;2023-03-23T02:50:16;99592.47;;;17.74
18713;BMP280;9485;49.386;8.674;2023-03-23T02:55:41;99585.22;;;17.73
18713;BMP280;9485;49.386;8.674;2023-03-23T03:01:51;99575.69;;;17.71
18713;BMP280;9485;49.386;8.674;2023-03-23T03:07:36;99581.00;;;17.67
18713;BMP280;9485;49.386;8.674;2023-03-23T03:13:21;99577.75;;;17.63
18713;BMP280;9485;49.386;8.674;2023-03-23T03:18:50;99584.03;;;17.61
18713;BMP280;9485;49.386;8.674;2023-03-23T03:24:20;99580.81;;;17.65
18713;BMP280;9485;49.386;8.674;2023-03-23T03:29:49;99565.41;;;17.68
18713;BMP280;9485;49.386;8.674;2023-03-23T03:35:12;99584.41;;;17.65
18713;BMP280;9485;49.386;8.674;2023-03-23T03:40:35;99583.66;;;17.65
18713;BMP280;9485;49.386;8.674;2023-03-23T03:45:56;99595.25;;;17.67
18713;BMP280;9485;49.386;8.674;2023-03-23T03:51:16;99603.09;;;17.66
18713;BMP280;9485;49.386;8.674;2023-03-23T03:56:43;99580.41;;;17.61
18713;BMP280;9485;49.386;8.674;2023-03-23T04:02:23;99586.66;;;17.52
18713;BMP280;9485;49.386;8.674;2023-03-23T04:07:45;99587.78;;;17.49
18713;BMP280;9485;49.386;8.674;2023-03-23T04:13:13;99572.56;;;17.46
18713;BMP280;9485;49.386;8.674;2023-03-23T04:18:55;99592.88;;;17.43
18713;BMP280;9485;49.386;8.674;2023-03-23T04:24:19;99588.88;;;17.38
18713;BMP280;9485;49.386;8.674;2023-03-23T04:29:42;99608.13;;;17.45
18713;BMP280;9485;49.386;8.674;2023-03-23T04:35:25;99577.34;;;17.24
18713;BMP280;9485;49.386;8.674;2023-03-23T04:40:58;99616.66;;;17.38
18713;BMP280;9485;49.386;8.674;2023-03-23T04:47:00;99619.88;;;17.34
18713;BMP280;9485;49.386;8.674;2023-03-23T04:52:25;99621.19;;;17.33
18713;BMP280;9485;49.386;8.674;2023-03-23T04:57:50;99630.56;;;17.21
18713;BMP280;9485;49.386;8.674;2023-03-23T05:03:28;99646.34;;;16.94
18713;BMP280;9485;49.386;8.674;2023-03-23T05:08:51;99634.28;;;16.60
18713;BMP280;9485;49.386;8.674;2023-03-23T05:14:14;99655.34;;;16.24
18713;BMP280;9485;49.386;8.674;2023-03-23T05:19:39;99653.34;;;15.99
18713;BMP280;9485;49.386;8.674;2023-03-23T05:25:20;99652.38;;;15.83
18713;BMP280;9485;49.386;8.674;2023-03-23T05:30:47;99652.63;;;15.73
18713;BMP280;9485;49.386;8.674;2023-03-23T05:36:11;99652.19;;;15.69
18713;BMP280;9485;49.386;8.674;2023-03-23T05:42:08;99656.50;;;15.62
18713;BMP280;9485;49.386;8.674;2023-03-23T05:47:40;99661.94;;;15.60
18713;BMP280;9485;49.386;8.674;2023-03-23T05:53:07;99649.16;;;15.67
18713;BMP280;9485;49.386;8.674;2023-03-23T05:58:31;99655.81;;;15.69
18713;BMP280;9485;49.386;8.674;2023-03-23T06:03:53;99666.88;;;15.73
18713;BMP280;9485;49.386;8.674;2023-03-23T06:09:22;99667.50;;;15.78
18713;BMP280;9485;49.386;8.674;2023-03-23T06:15:20;99679.44;;;15.90
18713;BMP280;9485;49.386;8.674;2023-03-23T06:20:53;99679.50;;;15.97
18713;BMP280;9485;49.386;8.674;2023-03-23T06:26:38;99683.66;;;16.09
18713;BMP280;9485;49.386;8.674;2023-03-23T06:32:04;99691.63;;;16.24
18713;BMP280;9485;49.386;8.674;2023-03-23T06:37:26;99683.69;;;16.43
18713;BMP280;9485;49.386;8.674;2023-03-23T06:43:08;99675.50;;;16.59
18713;BMP280;9485;49.386;8.674;2023-03-23T06:48:35;99683.97;;;16.72
18713;BMP280;9485;49.386;8.674;2023-03-23T06:53:56;99688.66;;;16.83
18713;BMP280;9485;49.386;8.674;2023-03-23T06:59:21;99696.72;;;16.92
18713;BMP280;9485;49.386;8.674;2023-03-23T07:04:42;99712.56;;;17.00
18713;BMP280;9485;49.386;8.674;2023-03-23T07:10:10;99720.63;;;17.09
18713;BMP280;9485;49.386;8.674;2023-03-23T07:15:33;99718.81;;;17.19
18713;BMP280;9485;49.386;8.674;2023-03-23T07:20:54;99742.88;;;17.11
18713;BMP280;9485;49.386;8.674;2023-03-23T07:26:21;99760.91;;;16.85
18713;BMP280;9485;49.386;8.674;2023-03-23T07:31:48;99748.41;;;16.55
18713;BMP280;9485;49.386;8.674;2023-03-23T07:37:09;99747.72;;;16.29
18713;BMP280;9485;49.386;8.674;2023-03-23T07:42:33;99757.78;;;16.17
18713;BMP280;9485;49.386;8.674;2023-03-23T07:47:55;99750.78;;;16.18
18713;BMP280;9485;49.386;8.674;2023-03-23T07:53:16;99777.81;;;16.24
18713;BMP280;9485;49.386;8.674;2023-03-23T07:58:46;99789.34;;;16.32
18713;BMP280;9485;49.386;8.674;2023-03-23T08:04:08;99796.34;;;16.44
18713;BMP280;9485;49.386;8.674;2023-03-23T08:09:42;99793.69;;;16.58
18713;BMP280;9485;49.386;8.674;2023-03-23T08:15:21;99793.41;;;16.69
18713;BMP280;9485;49.386;8.674;2023-03-23T08:21:01;99771.28;;;16.62
18713;BMP280;9485;49.386;8.674;2023-03-23T08:26:31;99808.69;;;16.92
18713;BMP280;9485;49.386;8.674;2023-03-23T08:32:06;99811.28;;;17.03
18713;BMP280;9485;49.386;8.674;2023-03-23T08:38:06;99817.13;;;17.18
18713;BMP280;9485;49.386;8.674;2023-03-23T08:43:38;99824.97;;;17.25
18713;BMP280;9485;49.386;8.674;2023-03-23T08:49:28;99833.53;;;17.38
18713;BMP280;9485;49.386;8.674;2023-03-23T08:55:13;99809.66;;;17.28
18713;BMP280;9485;49.386;8.674;2023-03-23T09:00:48;99837.75;;;17.44
18713;BMP280;9485;49.386;8.674;2023-03-23T09:06:21;99825.84;;;17.33
18713;BMP280;9485;49.386;8.674;2023-03-23T09:11:43;99839.41;;;17.40
18713;BMP280;9485;49.386;8.674;2023-03-23T09:17:04;99840.69;;;17.52
18713;BMP280;9485;49.386;8.674;2023-03-23T09:22:26;99845.13;;;17.60
18713;BMP280;9485;49.386;8.674;2023-03-23T09:27:52;99857.94;;;17.67
18713;BMP280;9485;49.386;8.674;2023-03-23T09:33:16;99840.75;;;17.59
18713;BMP280;9485;49.386;8.674;2023-03-23T09:38:36;99856.72;;;17.83
18713;BMP280;9485;49.386;8.674;2023-03-23T09:44:07;99871.34;;;18.00
18713;BMP280;9485;49.386;8.674;2023-03-23T09:49:35;99866.63;;;18.09
18713;BMP280;9485;49.386;8.674;2023-03-23T09:54:58;99843.78;;;18.09
18713;BMP280;9485;49.386;8.674;2023-03-23T10:00:29;99873.91;;;18.38
18713;BMP280;9485;49.386;8.674;2023-03-23T10:05:53;99867.09;;;18.49
18713;BMP280;9485;49.386;8.674;2023-03-23T10:11:33;99866.22;;;18.61
18713;BMP280;9485;49.386;8.674;2023-03-23T10:17:13;99867.47;;;18.88
18713;BMP280;9485;49.386;8.674;2023-03-23T10:22:40;99864.16;;;19.19
18713;BMP280;9485;49.386;8.674;2023-03-23T10:28:10;99862.28;;;19.29
18713;BMP280;9485;49.386;8.674;2023-03-23T10:33:38;99858.25;;;19.32
18713;BMP280;9485;49.386;8.674;2023-03-23T10:39:10;99850.59;;;19.20
18713;BMP280;9485;49.386;8.674;2023-03-23T10:44:34;99848.69;;;19.15
18713;BMP280;9485;49.386;8.674;2023-03-23T10:50:00;99847.31;;;19.08
18713;BMP280;9485;49.386;8.674;2023-03-23T10:55:37;99860.25;;;18.94
18713;BMP280;9485;49.386;8.674;2023-03-23T11:01:01;99869.91;;;18.77
18713;BMP280;9485;49.386;8.674;2023-03-23T11:06:28;99871.13;;;18.96
18713;BMP280;9485;49.386;8.674;2023-03-23T11:11:52;99871.63;;;19.22
18713;BMP280;9485;49.386;8.674;2023-03-23T11:17:22;99890.78;;;19.07
18713;BMP280;9485;49.386;8.674;2023-03-23T11:22:50;99887.28;;;18.86
18713;BMP280;9485;49.386;8.674;2023-03-23T11:28:12;99901.94;;;18.75
18713;BMP280;9485;49.386;8.674;2023-03-23T11:33:38;99889.72;;;18.75
18713;BMP280;9485;49.386;8.674;2023-03-23T11:39:02;99887.03;;;18.69
18713;BMP280;9485;49.386;8.674;2023-03-23T11:44:33;99890.28;;;18.73
18713;BMP280;9485;49.386;8.674;2023-03-23T11:50:08;99891.25;;;18.76
18713;BMP280;9485;49.386;8.674;2023-03-23T11:55:37;99873.69;;;18.72
18713;BMP280;9485;49.386;8.674;2023-03-23T12:01:01;99862.56;;;18.61
18713;BMP280;9485;49.386;8.674;2023-03-23T12:06:37;99873.03;;;18.51
18713;BMP280;9485;49.386;8.674;2023-03-23T12:12:16;99885.66;;;18.27
18713;BMP280;9485;49.386;8.674;2023-03-23T12:17:51;99865.91;;;18.16
18713;BMP280;9485;49.386;8.674;2023-03-23T12:23:24;99884.19;;;18.13
18713;BMP280;9485;49.386;8.674;2023-03-23T12:29:43;99867.19;;;18.08
18713;BMP280;9485;49.386;8.674;2023-03-23T12:35:22;99849.31;;;18.08
18713;BMP280;9485;49.386;8.674;2023-03-23T12:41:01;99855.78;;;18.08
18713;BMP280;9485;49.386;8.674;2023-03-23T12:46:54;99847.81;;;18.14
18713;BMP280;9485;49.386;8.674;2023-03-23T12:52:26;99846.28;;;18.13
18713;BMP280;9485;49.386;8.674;2023-03-23T12:57:54;99837.53;;;18.11
18713;BMP280;9485;49.386;8.674;2023-03-23T13:03:28;99813.72;;;18.16
18713;BMP280;9485;49.386;8.674;2023-03-23T13:08:56;99808.16;;;18.10
18713;BMP280;9485;49.386;8.674;2023-03-23T13:14:34;99796.13;;;18.05
18713;BMP280;9485;49.386;8.674;2023-03-23T13:20:34;99794.84;;;18.13
18713;BMP280;9485;49.386;8.674;2023-03-23T13:26:01;99798.66;;;18.15
18713;BMP280;9485;49.386;8.674;2023-03-23T13:31:26;99801.41;;;18.21
18713;BMP280;9485;49.386;8.674;2023-03-23T13:36:56;99800.19;;;18.16
18713;BMP280;9485;49.386;8.674;2023-03-23T13:42:20;99793.53;;;18.14
18713;BMP280;9485;49.386;8.674;2023-03-23T13:47:42;99794.09;;;18.12
18713;BMP280;9485;49.386;8.674;2023-03-23T13:53:23;99811.03;;;18.10
18713;BMP280;9485;49.386;8.674;2023-03-23T13:58:48;99810.06;;;18.08
18713;BMP280;9485;49.386;8.674;2023-03-23T14:04:13;99803.38;;;18.06
18713;BMP280;9485;49.386;8.674;2023-03-23T14:09:41;99773.81;;;17.96
18713;BMP280;9485;49.386;8.674;2023-03-23T14:15:04;99785.28;;;18.03
18713;BMP280;9485;49.386;8.674;2023-03-23T14:20:30;99794.47;;;18.09
18713;BMP280;9485;49.386;8.674;2023-03-23T14:26:01;99788.16;;;18.10
18713;BMP280;9485;49.386;8.674;2023-03-23T14:31:28;99785.53;;;18.12
18713;BMP280;9485;49.386;8.674;2023-03-23T14:36:49;99800.56;;;18.13
18713;BMP280;9485;49.386;8.674;2023-03-23T14:42:14;99797.16;;;18.14
18713;BMP280;9485;49.386;8.674;2023-03-23T14:47:44;99789.50;;;18.09
18713;BMP280;9485;49.386;8.674;2023-03-23T14:53:13;99791.97;;;18.06
18713;BMP280;9485;49.386;8.674;2023-03-23T14:58:38;99794.13;;;17.85
18713;BMP280;9485;49.386;8.674;2023-03-23T15:04:08;99790.28;;;17.82
18713;BMP280;9485;49.386;8.674;2023-03-23T15:09:31;99774.69;;;17.83
18713;BMP280;9485;49.386;8.674;2023-03-23T15:14:57;99780.47;;;17.98
18713;BMP280;9485;49.386;8.674;2023-03-23T15:20:24;99777.81;;;18.00
18713;BMP280;9485;49.386;8.674;2023-03-23T15:25:50;99791.34;;;18.00
18713;BMP280;9485;49.386;8.674;2023-03-23T15:31:13;99791.16;;;17.98
18713;BMP280;9485;49.386;8.674;2023-03-23T15:36:35;99791.50;;;17.94
18713;BMP280;9485;49.386;8.674;2023-03-23T15:41:58;99783.69;;;17.95
18713;BMP280;9485;49.386;8.674;2023-03-23T15:47:20;99764.31;;;18.01
18713;BMP280;9485;49.386;8.674;2023-03-23T15:52:42;99743.34;;;17.98
18713;BMP280;9485;49.386;8.674;2023-03-23T15:58:10;99730.78;;;17.94
18713;BMP280;9485;49.386;8.674;2023-03-23T16:03:38;99727.72;;;17.92
18713;BMP280;9485;49.386;8.674;2023-03-23T16:09:00;99720.84;;;17.95
18713;BMP280;9485;49.386;8.674;2023-03-23T16:14:21;99721.06;;;17.97
18713;BMP280;9485;49.386;8.674;2023-03-23T16:19:43;99716.31;;;17.99
18713;BMP280;9485;49.386;8.674;2023-03-23T16:25:05;99714.25;;;18.07
18713;BMP280;9485;49.386;8.674;2023-03-23T16:30:31;99719.44;;;18.16
18713;BMP280;9485;49.386;8.674;2023-03-23T16:35:54;99703.88;;;18.24
18713;BMP280;9485;49.386;8.674;2023-03-23T16:41:16;99705.63;;;18.27
18713;BMP280;9485;49.386;8.674;2023-03-23T16:46:37;99677.97;;;18.22
18713;BMP280;9485;49.386;8.674;2023-03-23T16:51:59;99692.88;;;18.36
18713;BMP280;9485;49.386;8.674;2023-03-23T16:57:20;99675.69;;;18.21
18713;BMP280;9485;49.386;8.674;2023-03-23T17:02:41;99690.00;;;18.36
18713;BMP280;9485;49.386;8.674;2023-03-23T17:08:04;99689.25;;;18.35
18713;BMP280;9485;49.386;8.674;2023-03-23T17:13:25;99685.63;;;18.35
18713;BMP280;9485;49.386;8.674;2023-03-23T17:18:46;99680.69;;;18.35
18713;BMP280;9485;49.386;8.674;2023-03-23T17:24:09;99679.91;;;18.35
18713;BMP280;9485;49.386;8.674;2023-03-23T17:29:30;99674.97;;;18.35
18713;BMP280;9485;49.386;8.674;2023-03-23T17:34:52;99675.72;;;18.36
18713;BMP280;9485;49.386;8.674;2023-03-23T17:40:14;99666.94;;;18.34
18713;BMP280;9485;49.386;8.674;2023-03-23T17:45:37;99668.84;;;18.31
18713;BMP280;9485;49.386;8.674;2023-03-23T17:50:59;99672.66;;;18.26
18713;BMP280;9485;49.386;8.674;2023-03-23T17:56:22;99681.03;;;18.24
18713;BMP280;9485;49.386;8.674;2023-03-23T18:01:43;99672.25;;;18.22
18713;BMP280;9485;49.386;8.674;2023-03-23T18:07:05;99683.50;;;18.20
18713;BMP280;9485;49.386;8.674;2023-03-23T18:12:28;99677.00;;;18.20
18713;BMP280;9485;49.386;8.674;2023-03-23T18:17:49;99673.22;;;18.25
18713;BMP280;9485;49.386;8.674;2023-03-23T18:23:10;99672.28;;;18.30
18713;BMP280;9485;49.386;8.674;2023-03-23T18:28:33;99674.56;;;18.31
18713;BMP280;9485;49.386;8.674;2023-03-23T18:33:54;99669.44;;;18.30
18713;BMP280;9485;49.386;8.674;2023-03-23T18:39:15;99666.72;;;18.24
18713;BMP280;9485;49.386;8.674;2023-03-23T18:44:37;99658.53;;;18.21
18713;BMP280;9485;49.386;8.674;2023-03-23T18:49:58;99667.88;;;18.21
18713;BMP280;9485;49.386;8.674;2023-03-23T18:55:19;99657.00;;;18.20
18713;BMP280;9485;49.386;8.674;2023-03-23T19:00:42;99667.66;;;18.19
18713;BMP280;9485;49.386;8.674;2023-03-23T19:06:05;99631.41;;;18.00
18713;BMP280;9485;49.386;8.674;2023-03-23T19:11:25;99669.56;;;18.17
18713;BMP280;9485;49.386;8.674;2023-03-23T19:16:48;99633.50;;;18.07
18713;BMP280;9485;49.386;8.674;2023-03-23T19:22:09;99660.44;;;18.26
18713;BMP280;9485;49.386;8.674;2023-03-23T19:27:30;99663.13;;;18.31
18713;BMP280;9485;49.386;8.674;2023-03-23T19:32:52;99660.31;;;18.39
18713;BMP280;9485;49.386;8.674;2023-03-23T19:38:13;99657.25;;;18.44
18713;BMP280;9485;49.386;8.674;2023-03-23T19:43:33;99666.97;;;18.49
18713;BMP280;9485;49.386;8.674;2023-03-23T19:48:56;99667.56;;;18.47
18713;BMP280;9485;49.386;8.674;2023-03-23T19:54:20;99666.97;;;18.49
18713;BMP280;9485;49.386;8.674;2023-03-23T19:59:41;99660.53;;;18.48
18713;BMP280;9485;49.386;8.674;2023-03-23T20:05:04;99660.91;;;18.52
18713;BMP280;9485;49.386;8.674;2023-03-23T20:10:24;99658.03;;;18.52
18713;BMP280;9485;49.386;8.674;2023-03-23T20:15:50;99659.00;;;18.47
18713;BMP280;9485;49.386;8.674;2023-03-23T20:21:15;99651.00;;;18.46
18713;BMP280;9485;49.386;8.674;2023-03-23T20:26:39;99642.97;;;18.44
18713;BMP280;9485;49.386;8.674;2023-03-23T20:32:01;99642.38;;;18.38
18713;BMP280;9485;49.386;8.674;2023-03-23T20:37:23;99639.72;;;18.40
18713;BMP280;9485;49.386;8.674;2023-03-23T20:42:44;99624.44;;;18.30
18713;BMP280;9485;49.386;8.674;2023-03-23T20:48:04;99621.97;;;18.27
18713;BMP280;9485;49.386;8.674;2023-03-23T20:53:29;99622.16;;;18.29
18713;BMP280;9485;49.386;8.674;2023-03-23T20:58:51;99614.34;;;18.29
18713;BMP280;9485;49.386;8.674;2023-03-23T21:04:16;99610.94;;;18.31
18713;BMP280;9485;49.386;8.674;2023-03-23T21:09:39;99601.59;;;18.30
18713;BMP280;9485;49.386;8.674;2023-03-23T21:15:00;99601.41;;;18.28
18713;BMP280;9485;49.386;8.674;2023-03-23T21:20:21;99597.19;;;18.29
18713;BMP280;9485;49.386;8.674;2023-03-23T21:25:44;99581.41;;;18.28
18713;BMP280;9485;49.386;8.674;2023-03-23T21:31:05;99583.31;;;18.33
18713;BMP280;9485;49.386;8.674;2023-03-23T21:36:27;99573.97;;;18.33
18713;BMP280;9485;49.386;8.674;2023-03-23T21:41:49;99564.25;;;18.36
18713;BMP280;9485;49.386;8.674;2023-03-23T21:47:10;99563.13;;;18.39
18713;BMP280;9485;49.386;8.674;2023-03-23T21:52:32;99535.84;;;18.30
18713;BMP280;9485;49.386;8.674;2023-03-23T21:57:54;99553.22;;;18.55
18713;BMP280;9485;49.386;8.674;2023-03-23T22:03:16;99532.06;;;18.65
18713;BMP280;9485;49.386;8.674;2023-03-23T22:08:43;99523.88;;;18.69
18713;BMP280;9485;49.386;8.674;2023-03-23T22:14:06;99523.25;;;18.78
18713;BMP280;9485;49.386;8.674;2023-03-23T22:19:27;99518.69;;;18.83
18713;BMP280;9485;49.386;8.674;2023-03-23T22:24:47;99519.47;;;18.83
18713;BMP280;9485;49.386;8.674;2023-03-23T22:30:13;99515.44;;;18.86
18713;BMP280;9485;49.386;8.674;2023-03-23T22:35:34;99505.53;;;18.87
18713;BMP280;9485;49.386;8.674;2023-03-23T22:40:56;99495.81;;;18.83
18713;BMP280;9485;49.386;8.674;2023-03-23T22:46:18;99491.22;;;18.87
18713;BMP280;9485;49.386;8.674;2023-03-23T22:51:40;99503.44;;;18.87
18713;BMP280;9485;49.386;8.674;2023-03-23T22:57:00;99496.19;;;18.86
18713;BMP280;9485;49.386;8.674;2023-03-23T23:02:23;99498.88;;;18.77
18713;BMP280;9485;49.386;8.674;2023-03-23T23:07:43;99492.59;;;18.71
18713;BMP280;9485;49.386;8.674;2023-03-23T23:13:05;99498.91;;;18.62
18713;BMP280;9485;49.386;8.674;2023-03-23T23:18:29;99492.03;;;18.50
18713;BMP280;9485;49.386;8.674;2023-03-23T23:23:52;99500.81;;;18.37
18713;BMP280;9485;49.386;8.674;2023-03-23T23:29:13;99498.16;;;18.24
18713;BMP280;9485;49.386;8.674;2023-03-23T23:34:35;99482.66;;;18.05
18713;BMP280;9485;49.386;8.674;2023-03-23T23:39:55;99474.66;;;17.81
18713;BMP280;9485;49.386;8.674;2023-03-23T23:45:17;99460.72;;;17.63
18713;BMP280;9485;49.386;8.674;2023-03-23T23:50:39;99460.66;;;17.40
18713;BMP280;9485;49.386;8.674;2023-03-23T23:56:01;99460.81;;;17.35
